Orbital elements of SAPPHIRE
| Launched | 24 February 2013 |
| Flight ended | – |
| Launch site | Satish Dhawan Space Centre, India (Formerly Sriharikota Launching Range) |
| Owner | Canada |
| NORAD ID | 39088 |
| Date fetched |
Epoch osculation |
Inc. [°] |
Ecc. | RA asc node [hr] |
Arg Peri. [°] |
Mean anom [°] |
Mean motion [rev/day] |
Abs. mag |
| Date fetched |
Epoch osculation |
Inc. [°] |
Ecc. | RA asc node [hr] |
Arg Peri. [°] |
Mean anom [°] |
Mean motion [rev/day] |
Abs. mag |
| 2026 May 08 17:57 | 2026 May 08 05:09:43 | 98.4254 | 0.00114 | 20.5748 | 14.3146 | 345.8361 | 14.35230 | – |
| 2026 May 07 17:58 | 2026 May 07 02:23:28 | 98.4253 | 0.00115 | 20.5022 | 17.5559 | 345.8361 | 14.35230 | – |
| 2026 May 06 17:57 | 2026 May 06 13:00:21 | 98.4253 | 0.00115 | 20.4659 | 19.1634 | 345.8361 | 14.35230 | – |
| 2026 May 05 17:57 | 2026 May 05 10:14:07 | 98.4252 | 0.00116 | 20.3933 | 22.3361 | 345.8361 | 14.35230 | – |
| 2026 May 04 17:57 | 2026 May 04 10:48:39 | 98.4251 | 0.00116 | 20.3298 | 25.1392 | 345.8361 | 14.35230 | – |
| 2026 May 03 17:57 | 2026 May 03 11:23:11 | 98.4251 | 0.00117 | 20.2663 | 27.9109 | 345.8361 | 14.35230 | – |
| 2026 May 02 17:57 | 2026 May 02 10:17:20 | 98.4250 | 0.00117 | 20.1982 | 30.8759 | 345.8361 | 14.35230 | – |
| 2026 May 01 17:56 | 2026 May 01 12:32:15 | 98.4250 | 0.00118 | 20.1392 | 33.4369 | 345.8361 | 14.35230 | – |
| 2026 Apr 30 17:56 | 2026 Apr 30 11:26:24 | 98.4250 | 0.00119 | 20.0712 | 36.3822 | 345.8361 | 14.35230 | – |
| 2026 Apr 29 17:57 | 2026 Apr 29 12:00:56 | 98.4251 | 0.00119 | 20.0077 | 39.1197 | 345.8361 | 14.35230 | – |
| 2026 Apr 28 17:56 | 2026 Apr 28 12:35:29 | 98.4251 | 0.00120 | 19.9441 | 41.8392 | 345.8361 | 14.35230 | – |
| 2026 Apr 27 17:58 | 2026 Apr 27 09:49:14 | 98.4251 | 0.00120 | 19.8716 | 44.9793 | 345.8361 | 14.35230 | – |
| 2026 Apr 26 17:58 | 2026 Apr 26 12:04:09 | 98.4251 | 0.00120 | 19.8126 | 47.4839 | 345.8361 | 14.35230 | – |
| 2026 Apr 25 17:58 | 2026 Apr 25 12:38:41 | 98.4251 | 0.00121 | 19.7491 | 50.1769 | 345.8361 | 14.35230 | – |
| 2026 Apr 24 17:59 | 2026 Apr 24 11:32:50 | 98.4251 | 0.00121 | 19.6810 | 53.0678 | 345.8361 | 14.35230 | – |
| 2026 Apr 23 17:57 | 2026 Apr 23 07:06:12 | 98.4250 | 0.00122 | 19.6039 | 56.3130 | 345.8361 | 14.35230 | – |
| 2026 Apr 22 17:57 | 2026 Apr 22 02:39:33 | 98.4250 | 0.00122 | 19.5267 | 59.5472 | 345.8361 | 14.35230 | – |
| 2026 Apr 21 17:57 | 2026 Apr 21 09:55:39 | 98.4249 | 0.00122 | 19.4814 | 61.4420 | 345.8361 | 14.35230 | – |
| 2026 Apr 20 17:57 | 2026 Apr 20 08:49:48 | 98.4248 | 0.00123 | 19.4133 | 64.2830 | 345.8361 | 14.35230 | – |
| 2026 Apr 19 17:58 | 2026 Apr 19 07:43:56 | 98.4248 | 0.00123 | 19.3453 | 67.1413 | 345.8361 | 14.35230 | – |
| 2026 Apr 18 17:56 | 2026 Apr 18 04:57:41 | 98.4247 | 0.00123 | 19.2727 | 70.1614 | 345.8361 | 14.35230 | – |
| 2026 Apr 16 17:57 | 2026 Apr 15 23:25:11 | 98.4247 | 0.00124 | 19.1275 | 76.1825 | 345.8361 | 14.35230 | – |
| 2026 Apr 14 17:57 | 2026 Apr 14 10:36:36 | 98.4247 | 0.00124 | 19.0277 | 80.3088 | 345.8361 | 14.35230 | – |
| 2026 Apr 13 17:57 | 2026 Apr 13 06:09:57 | 98.4247 | 0.00124 | 18.9505 | 83.5035 | 345.8361 | 14.35230 | – |
| 2026 Apr 12 17:57 | 2026 Apr 12 08:24:53 | 98.4247 | 0.00124 | 18.8916 | 85.9528 | 345.8361 | 14.35230 | – |
| 2026 Apr 11 17:57 | 2026 Apr 11 10:39:48 | 98.4246 | 0.00124 | 18.8326 | 88.3981 | 345.8361 | 14.35230 | – |